sensor_id;sensor_type;location;lat;lon;timestamp;temperature;humidity
16160;DHT22;8185;57.818;15.224;2023-02-14T00:00:48;0.30;99.90
16160;DHT22;8185;57.818;15.224;2023-02-14T00:03:15;0.30;99.90
16160;DHT22;8185;57.818;15.224;2023-02-14T00:05:42;0.40;99.90
16160;DHT22;8185;57.818;15.224;2023-02-14T00:08:09;0.40;99.90
16160;DHT22;8185;57.818;15.224;2023-02-14T00:10:37;0.50;99.90
16160;DHT22;8185;57.818;15.224;2023-02-14T00:13:04;0.40;99.90
16160;DHT22;8185;57.818;15.224;2023-02-14T00:15:31;0.40;99.90
16160;DHT22;8185;57.818;15.224;2023-02-14T00:17:58;0.40;99.90
16160;DHT22;8185;57.818;15.224;2023-02-14T00:20:27;0.40;99.90
16160;DHT22;8185;57.818;15.224;2023-02-14T00:22:54;0.40;99.90
16160;DHT22;8185;57.818;15.224;2023-02-14T00:25:22;0.30;99.90
16160;DHT22;8185;57.818;15.224;2023-02-14T00:27:49;0.30;99.90
16160;DHT22;8185;57.818;15.224;2023-02-14T00:30:16;0.30;99.90
16160;DHT22;8185;57.818;15.224;2023-02-14T00:32:43;0.20;99.90
16160;DHT22;8185;57.818;15.224;2023-02-14T00:35:12;0.20;99.90
16160;DHT22;8185;57.818;15.224;2023-02-14T00:37:39;0.10;99.90
16160;DHT22;8185;57.818;15.224;2023-02-14T00:40:07;0.10;99.90
16160;DHT22;8185;57.818;15.224;2023-02-14T00:42:34;0.00;99.90
16160;DHT22;8185;57.818;15.224;2023-02-14T00:45:01;0.00;99.90
16160;DHT22;8185;57.818;15.224;2023-02-14T00:47:28;0.10;99.90
16160;DHT22;8185;57.818;15.224;2023-02-14T00:49:56;0.00;99.90
16160;DHT22;8185;57.818;15.224;2023-02-14T00:52:29;-0.10;99.90
16160;DHT22;8185;57.818;15.224;2023-02-14T00:54:56;-0.10;99.90
16160;DHT22;8185;57.818;15.224;2023-02-14T00:57:23;-0.20;99.90
16160;DHT22;8185;57.818;15.224;2023-02-14T00:59:50;-0.10;99.90
16160;DHT22;8185;57.818;15.224;2023-02-14T01:02:18;-0.30;99.90
16160;DHT22;8185;57.818;15.224;2023-02-14T01:04:45;-0.20;99.90
16160;DHT22;8185;57.818;15.224;2023-02-14T01:07:12;-0.20;99.90
16160;DHT22;8185;57.818;15.224;2023-02-14T01:09:40;-0.20;99.90
16160;DHT22;8185;57.818;15.224;2023-02-14T01:12:08;-0.20;99.90
16160;DHT22;8185;57.818;15.224;2023-02-14T01:14:35;-0.10;99.90
16160;DHT22;8185;57.818;15.224;2023-02-14T01:17:03;-0.10;99.90
16160;DHT22;8185;57.818;15.224;2023-02-14T01:19:30;-0.10;99.90
16160;DHT22;8185;57.818;15.224;2023-02-14T01:21:57;-0.10;99.90
16160;DHT22;8185;57.818;15.224;2023-02-14T01:24:24;-0.20;99.90
16160;DHT22;8185;57.818;15.224;2023-02-14T01:26:53;-0.20;99.90
16160;DHT22;8185;57.818;15.224;2023-02-14T01:29:20;-0.20;99.90
16160;DHT22;8185;57.818;15.224;2023-02-14T01:31:47;-0.20;99.90
16160;DHT22;8185;57.818;15.224;2023-02-14T01:34:14;-0.10;99.90
16160;DHT22;8185;57.818;15.224;2023-02-14T01:36:41;-0.20;99.90
16160;DHT22;8185;57.818;15.224;2023-02-14T01:39:11;-0.20;99.90
16160;DHT22;8185;57.818;15.224;2023-02-14T01:41:41;-0.20;99.90
16160;DHT22;8185;57.818;15.224;2023-02-14T01:47:11;-0.20;99.90
16160;DHT22;8185;57.818;15.224;2023-02-14T01:49:41;-0.30;99.90
16160;DHT22;8185;57.818;15.224;2023-02-14T01:52:12;-0.10;99.90
16160;DHT22;8185;57.818;15.224;2023-02-14T01:54:43;-0.20;99.90
16160;DHT22;8185;57.818;15.224;2023-02-14T01:57:15;-0.30;99.90
16160;DHT22;8185;57.818;15.224;2023-02-14T01:59:47;-0.30;99.90
16160;DHT22;8185;57.818;15.224;2023-02-14T02:02:18;-0.30;99.90
16160;DHT22;8185;57.818;15.224;2023-02-14T02:04:50;-0.10;99.90
16160;DHT22;8185;57.818;15.224;2023-02-14T02:07:23;0.00;99.90
16160;DHT22;8185;57.818;15.224;2023-02-14T02:09:54;0.00;99.90
16160;DHT22;8185;57.818;15.224;2023-02-14T02:12:22;0.10;99.90
16160;DHT22;8185;57.818;15.224;2023-02-14T02:14:52;0.10;99.90
16160;DHT22;8185;57.818;15.224;2023-02-14T02:17:29;0.00;99.90
16160;DHT22;8185;57.818;15.224;2023-02-14T02:20:27;0.00;99.90
16160;DHT22;8185;57.818;15.224;2023-02-14T02:26:19;0.00;99.90
16160;DHT22;8185;57.818;15.224;2023-02-14T02:29:13;0.00;99.90
16160;DHT22;8185;57.818;15.224;2023-02-14T02:35:02;-0.10;99.90
16160;DHT22;8185;57.818;15.224;2023-02-14T02:37:39;-0.20;99.90
16160;DHT22;8185;57.818;15.224;2023-02-14T02:40:24;-0.30;99.90
16160;DHT22;8185;57.818;15.224;2023-02-14T02:43:02;-0.30;99.90
16160;DHT22;8185;57.818;15.224;2023-02-14T02:45:38;-0.40;99.90
16160;DHT22;8185;57.818;15.224;2023-02-14T02:48:33;-0.20;99.90
16160;DHT22;8185;57.818;15.224;2023-02-14T02:51:10;-0.30;99.90
16160;DHT22;8185;57.818;15.224;2023-02-14T02:54:02;-0.20;99.90
16160;DHT22;8185;57.818;15.224;2023-02-14T02:56:33;-0.20;99.90
16160;DHT22;8185;57.818;15.224;2023-02-14T02:59:17;-0.20;99.90
16160;DHT22;8185;57.818;15.224;2023-02-14T03:01:48;-0.20;99.90
16160;DHT22;8185;57.818;15.224;2023-02-14T03:04:17;-0.20;99.90
16160;DHT22;8185;57.818;15.224;2023-02-14T03:07:05;-0.20;99.90
16160;DHT22;8185;57.818;15.224;2023-02-14T03:09:54;-0.30;99.90
16160;DHT22;8185;57.818;15.224;2023-02-14T03:12:45;-0.20;99.90
16160;DHT22;8185;57.818;15.224;2023-02-14T03:15:20;-0.20;99.90
16160;DHT22;8185;57.818;15.224;2023-02-14T03:17:54;-0.20;99.90
16160;DHT22;8185;57.818;15.224;2023-02-14T03:20:34;-0.10;99.90
16160;DHT22;8185;57.818;15.224;2023-02-14T03:23:08;-0.20;99.90
16160;DHT22;8185;57.818;15.224;2023-02-14T03:25:42;-0.20;99.90
16160;DHT22;8185;57.818;15.224;2023-02-14T03:28:17;-0.30;99.90
16160;DHT22;8185;57.818;15.224;2023-02-14T03:30:50;-0.30;99.90
16160;DHT22;8185;57.818;15.224;2023-02-14T03:33:23;-0.30;99.90
16160;DHT22;8185;57.818;15.224;2023-02-14T03:35:57;-0.40;99.90
16160;DHT22;8185;57.818;15.224;2023-02-14T03:38:31;-0.40;99.90
16160;DHT22;8185;57.818;15.224;2023-02-14T03:41:02;-0.50;99.90
16160;DHT22;8185;57.818;15.224;2023-02-14T03:43:33;-0.40;99.90
16160;DHT22;8185;57.818;15.224;2023-02-14T03:46:05;-0.40;99.90
16160;DHT22;8185;57.818;15.224;2023-02-14T03:48:34;-0.40;99.90
16160;DHT22;8185;57.818;15.224;2023-02-14T03:51:04;-0.40;99.90
16160;DHT22;8185;57.818;15.224;2023-02-14T03:53:37;-0.50;99.90
16160;DHT22;8185;57.818;15.224;2023-02-14T03:56:12;-0.50;99.90
16160;DHT22;8185;57.818;15.224;2023-02-14T03:58:42;-0.50;99.90
16160;DHT22;8185;57.818;15.224;2023-02-14T04:01:15;-0.50;99.90
16160;DHT22;8185;57.818;15.224;2023-02-14T04:03:45;-0.50;99.90
16160;DHT22;8185;57.818;15.224;2023-02-14T04:06:15;-0.60;99.90
16160;DHT22;8185;57.818;15.224;2023-02-14T04:08:44;-0.60;99.90
16160;DHT22;8185;57.818;15.224;2023-02-14T04:11:12;-0.60;99.90
16160;DHT22;8185;57.818;15.224;2023-02-14T04:13:39;-0.60;99.90
16160;DHT22;8185;57.818;15.224;2023-02-14T04:16:06;-0.60;99.90
16160;DHT22;8185;57.818;15.224;2023-02-14T04:18:33;-0.70;99.90
16160;DHT22;8185;57.818;15.224;2023-02-14T04:21:18;-0.70;99.90
16160;DHT22;8185;57.818;15.224;2023-02-14T04:23:47;-0.70;99.90
16160;DHT22;8185;57.818;15.224;2023-02-14T04:26:14;-0.70;99.90
16160;DHT22;8185;57.818;15.224;2023-02-14T04:28:41;-0.70;99.90
16160;DHT22;8185;57.818;15.224;2023-02-14T04:31:08;-0.80;99.90
16160;DHT22;8185;57.818;15.224;2023-02-14T04:33:36;-0.80;99.90
16160;DHT22;8185;57.818;15.224;2023-02-14T04:36:05;-0.90;99.90
16160;DHT22;8185;57.818;15.224;2023-02-14T04:38:32;-0.80;99.90
16160;DHT22;8185;57.818;15.224;2023-02-14T04:41:01;-0.80;99.90
16160;DHT22;8185;57.818;15.224;2023-02-14T04:43:28;-0.90;99.90
16160;DHT22;8185;57.818;15.224;2023-02-14T04:45:56;-0.80;99.90
16160;DHT22;8185;57.818;15.224;2023-02-14T04:48:23;-0.80;99.90
16160;DHT22;8185;57.818;15.224;2023-02-14T04:50:51;-0.90;99.90
16160;DHT22;8185;57.818;15.224;2023-02-14T04:53:19;-0.90;99.90
16160;DHT22;8185;57.818;15.224;2023-02-14T04:55:48;-1.00;99.90
16160;DHT22;8185;57.818;15.224;2023-02-14T04:58:17;-1.10;99.90
16160;DHT22;8185;57.818;15.224;2023-02-14T05:00:44;-1.10;99.90
16160;DHT22;8185;57.818;15.224;2023-02-14T05:03:11;-1.10;99.90
16160;DHT22;8185;57.818;15.224;2023-02-14T05:05:38;-1.10;99.90
16160;DHT22;8185;57.818;15.224;2023-02-14T05:08:05;-1.10;99.90
16160;DHT22;8185;57.818;15.224;2023-02-14T05:10:33;-1.10;99.90
16160;DHT22;8185;57.818;15.224;2023-02-14T05:13:00;-1.10;99.90
16160;DHT22;8185;57.818;15.224;2023-02-14T05:15:29;-1.10;99.90
16160;DHT22;8185;57.818;15.224;2023-02-14T05:17:56;-1.00;99.90
16160;DHT22;8185;57.818;15.224;2023-02-14T05:20:27;-1.20;99.90
16160;DHT22;8185;57.818;15.224;2023-02-14T05:22:55;-1.10;99.90
16160;DHT22;8185;57.818;15.224;2023-02-14T05:25:24;-1.20;99.90
16160;DHT22;8185;57.818;15.224;2023-02-14T05:27:52;-1.20;99.90
16160;DHT22;8185;57.818;15.224;2023-02-14T05:30:19;-1.20;99.90
16160;DHT22;8185;57.818;15.224;2023-02-14T05:32:53;-1.20;99.90
16160;DHT22;8185;57.818;15.224;2023-02-14T05:35:20;-1.30;99.90
16160;DHT22;8185;57.818;15.224;2023-02-14T05:37:47;-1.30;99.90
16160;DHT22;8185;57.818;15.224;2023-02-14T05:40:14;-1.40;99.90
16160;DHT22;8185;57.818;15.224;2023-02-14T05:42:41;-1.40;99.90
16160;DHT22;8185;57.818;15.224;2023-02-14T05:45:09;-1.50;99.90
16160;DHT22;8185;57.818;15.224;2023-02-14T05:47:37;-1.50;99.90
16160;DHT22;8185;57.818;15.224;2023-02-14T05:50:07;-1.60;99.90
16160;DHT22;8185;57.818;15.224;2023-02-14T05:52:34;-1.50;99.90
16160;DHT22;8185;57.818;15.224;2023-02-14T05:55:02;-1.60;99.90
16160;DHT22;8185;57.818;15.224;2023-02-14T05:57:30;-1.50;99.90
16160;DHT22;8185;57.818;15.224;2023-02-14T05:59:57;-1.40;99.90
16160;DHT22;8185;57.818;15.224;2023-02-14T06:02:24;-1.40;99.90
16160;DHT22;8185;57.818;15.224;2023-02-14T06:04:51;-1.50;99.90
16160;DHT22;8185;57.818;15.224;2023-02-14T06:07:20;-1.60;99.90
16160;DHT22;8185;57.818;15.224;2023-02-14T06:09:47;-1.60;99.90
16160;DHT22;8185;57.818;15.224;2023-02-14T06:12:14;-1.50;99.90
16160;DHT22;8185;57.818;15.224;2023-02-14T06:14:42;-1.50;99.90
16160;DHT22;8185;57.818;15.224;2023-02-14T06:17:09;-1.50;99.90
16160;DHT22;8185;57.818;15.224;2023-02-14T06:19:37;-1.50;99.90
16160;DHT22;8185;57.818;15.224;2023-02-14T06:22:04;-1.50;99.90
16160;DHT22;8185;57.818;15.224;2023-02-14T06:24:33;-1.60;99.90
16160;DHT22;8185;57.818;15.224;2023-02-14T06:27:00;-1.40;99.90
16160;DHT22;8185;57.818;15.224;2023-02-14T06:29:27;-1.30;99.90
16160;DHT22;8185;57.818;15.224;2023-02-14T06:31:54;-1.30;99.90
16160;DHT22;8185;57.818;15.224;2023-02-14T06:34:22;-1.30;99.90
16160;DHT22;8185;57.818;15.224;2023-02-14T06:36:49;-1.20;99.90
16160;DHT22;8185;57.818;15.224;2023-02-14T06:39:16;-1.30;99.90
16160;DHT22;8185;57.818;15.224;2023-02-14T06:41:45;-1.30;99.90
16160;DHT22;8185;57.818;15.224;2023-02-14T06:44:12;-1.20;99.90
16160;DHT22;8185;57.818;15.224;2023-02-14T06:46:39;-1.10;99.90
16160;DHT22;8185;57.818;15.224;2023-02-14T06:49:06;-1.00;99.90
16160;DHT22;8185;57.818;15.224;2023-02-14T06:51:33;-1.10;99.90
16160;DHT22;8185;57.818;15.224;2023-02-14T06:54:00;-1.10;99.90
16160;DHT22;8185;57.818;15.224;2023-02-14T06:56:28;-1.20;99.90
16160;DHT22;8185;57.818;15.224;2023-02-14T06:58:56;-1.30;99.90
16160;DHT22;8185;57.818;15.224;2023-02-14T07:01:24;-1.30;99.90
16160;DHT22;8185;57.818;15.224;2023-02-14T07:03:51;-1.30;99.90
16160;DHT22;8185;57.818;15.224;2023-02-14T07:06:18;-1.40;99.90
16160;DHT22;8185;57.818;15.224;2023-02-14T07:08:46;-1.50;99.90
16160;DHT22;8185;57.818;15.224;2023-02-14T07:11:13;-1.50;99.90
16160;DHT22;8185;57.818;15.224;2023-02-14T07:13:40;-1.40;99.90
16160;DHT22;8185;57.818;15.224;2023-02-14T07:16:10;-1.30;99.90
16160;DHT22;8185;57.818;15.224;2023-02-14T07:18:37;-1.20;99.90
16160;DHT22;8185;57.818;15.224;2023-02-14T07:21:04;-1.20;99.90
16160;DHT22;8185;57.818;15.224;2023-02-14T07:23:32;-1.40;99.90
16160;DHT22;8185;57.818;15.224;2023-02-14T07:26:02;-1.50;99.90
16160;DHT22;8185;57.818;15.224;2023-02-14T07:28:29;-1.50;99.90
16160;DHT22;8185;57.818;15.224;2023-02-14T07:30:58;-1.50;99.90
16160;DHT22;8185;57.818;15.224;2023-02-14T07:33:27;-1.30;99.90
16160;DHT22;8185;57.818;15.224;2023-02-14T07:35:54;-1.00;99.90
16160;DHT22;8185;57.818;15.224;2023-02-14T07:38:22;-0.90;99.90
16160;DHT22;8185;57.818;15.224;2023-02-14T07:40:50;-0.70;99.90
16160;DHT22;8185;57.818;15.224;2023-02-14T07:43:19;-0.80;99.90
16160;DHT22;8185;57.818;15.224;2023-02-14T07:45:46;-0.60;99.90
16160;DHT22;8185;57.818;15.224;2023-02-14T07:48:13;-0.60;99.90
16160;DHT22;8185;57.818;15.224;2023-02-14T07:50:42;-0.50;99.90
16160;DHT22;8185;57.818;15.224;2023-02-14T07:53:09;-0.40;99.90
16160;DHT22;8185;57.818;15.224;2023-02-14T07:55:36;-0.30;99.90
16160;DHT22;8185;57.818;15.224;2023-02-14T07:58:05;-0.30;99.90
16160;DHT22;8185;57.818;15.224;2023-02-14T08:00:32;-0.20;99.90
16160;DHT22;8185;57.818;15.224;2023-02-14T08:02:59;-0.20;99.90
16160;DHT22;8185;57.818;15.224;2023-02-14T08:05:27;-0.20;99.90
16160;DHT22;8185;57.818;15.224;2023-02-14T08:07:55;-0.20;99.90
16160;DHT22;8185;57.818;15.224;2023-02-14T08:10:22;-0.10;99.90
16160;DHT22;8185;57.818;15.224;2023-02-14T08:12:49;-0.10;99.90
16160;DHT22;8185;57.818;15.224;2023-02-14T08:15:26;-0.10;99.90
16160;DHT22;8185;57.818;15.224;2023-02-14T08:18:11;-0.10;99.90
16160;DHT22;8185;57.818;15.224;2023-02-14T08:20:38;0.00;99.90
16160;DHT22;8185;57.818;15.224;2023-02-14T08:23:07;0.00;99.90
16160;DHT22;8185;57.818;15.224;2023-02-14T08:25:34;0.10;99.90
16160;DHT22;8185;57.818;15.224;2023-02-14T08:28:01;0.20;99.90
16160;DHT22;8185;57.818;15.224;2023-02-14T08:30:29;0.20;99.90
16160;DHT22;8185;57.818;15.224;2023-02-14T08:32:56;0.30;99.90
16160;DHT22;8185;57.818;15.224;2023-02-14T08:35:23;0.30;99.90
16160;DHT22;8185;57.818;15.224;2023-02-14T08:37:51;0.40;99.90
16160;DHT22;8185;57.818;15.224;2023-02-14T08:40:19;0.50;99.90
16160;DHT22;8185;57.818;15.224;2023-02-14T08:42:47;0.50;99.90
16160;DHT22;8185;57.818;15.224;2023-02-14T08:45:14;0.60;99.90
16160;DHT22;8185;57.818;15.224;2023-02-14T08:47:41;0.70;99.90
16160;DHT22;8185;57.818;15.224;2023-02-14T08:50:10;0.80;99.90
16160;DHT22;8185;57.818;15.224;2023-02-14T08:52:39;0.90;99.90
16160;DHT22;8185;57.818;15.224;2023-02-14T08:55:06;0.90;99.90
16160;DHT22;8185;57.818;15.224;2023-02-14T08:57:35;1.00;99.90
16160;DHT22;8185;57.818;15.224;2023-02-14T09:00:04;1.00;99.90
16160;DHT22;8185;57.818;15.224;2023-02-14T09:02:31;1.10;99.90
16160;DHT22;8185;57.818;15.224;2023-02-14T09:04:59;1.20;99.90
16160;DHT22;8185;57.818;15.224;2023-02-14T09:07:26;1.20;99.90
16160;DHT22;8185;57.818;15.224;2023-02-14T09:09:53;1.30;99.90
16160;DHT22;8185;57.818;15.224;2023-02-14T09:12:20;1.30;99.90
16160;DHT22;8185;57.818;15.224;2023-02-14T09:14:49;1.30;99.90
16160;DHT22;8185;57.818;15.224;2023-02-14T09:17:17;1.30;99.90
16160;DHT22;8185;57.818;15.224;2023-02-14T09:19:44;1.20;99.90
16160;DHT22;8185;57.818;15.224;2023-02-14T09:22:11;1.30;99.90
16160;DHT22;8185;57.818;15.224;2023-02-14T09:24:39;1.30;99.90
16160;DHT22;8185;57.818;15.224;2023-02-14T09:27:07;1.40;99.90
16160;DHT22;8185;57.818;15.224;2023-02-14T09:29:34;1.30;99.90
16160;DHT22;8185;57.818;15.224;2023-02-14T09:32:03;1.40;99.90
16160;DHT22;8185;57.818;15.224;2023-02-14T09:34:32;1.40;99.90
16160;DHT22;8185;57.818;15.224;2023-02-14T09:37:17;1.50;99.90
16160;DHT22;8185;57.818;15.224;2023-02-14T09:39:44;1.50;99.90
16160;DHT22;8185;57.818;15.224;2023-02-14T09:42:28;1.50;99.90
16160;DHT22;8185;57.818;15.224;2023-02-14T09:45:03;1.50;99.90
16160;DHT22;8185;57.818;15.224;2023-02-14T09:47:36;1.60;99.90
16160;DHT22;8185;57.818;15.224;2023-02-14T09:50:10;1.80;99.90
16160;DHT22;8185;57.818;15.224;2023-02-14T09:52:41;1.80;99.90
16160;DHT22;8185;57.818;15.224;2023-02-14T09:55:13;1.90;99.90
16160;DHT22;8185;57.818;15.224;2023-02-14T09:57:48;2.10;99.90
16160;DHT22;8185;57.818;15.224;2023-02-14T10:00:28;2.20;99.90
16160;DHT22;8185;57.818;15.224;2023-02-14T10:03:08;2.60;99.90
16160;DHT22;8185;57.818;15.224;2023-02-14T10:05:46;2.50;99.90
16160;DHT22;8185;57.818;15.224;2023-02-14T10:08:29;2.70;99.90
16160;DHT22;8185;57.818;15.224;2023-02-14T10:11:04;3.00;99.90
16160;DHT22;8185;57.818;15.224;2023-02-14T10:13:39;3.20;99.90
16160;DHT22;8185;57.818;15.224;2023-02-14T10:16:19;3.00;99.90
16160;DHT22;8185;57.818;15.224;2023-02-14T10:18:55;2.80;99.90
16160;DHT22;8185;57.818;15.224;2023-02-14T10:21:27;2.90;99.90
16160;DHT22;8185;57.818;15.224;2023-02-14T10:24:00;3.10;99.90
16160;DHT22;8185;57.818;15.224;2023-02-14T10:26:33;2.80;99.90
16160;DHT22;8185;57.818;15.224;2023-02-14T10:29:02;2.90;99.90
16160;DHT22;8185;57.818;15.224;2023-02-14T10:31:38;2.90;99.90
16160;DHT22;8185;57.818;15.224;2023-02-14T10:34:14;3.10;99.90
16160;DHT22;8185;57.818;15.224;2023-02-14T10:36:54;3.00;99.90
16160;DHT22;8185;57.818;15.224;2023-02-14T10:39:41;2.70;99.90
16160;DHT22;8185;57.818;15.224;2023-02-14T10:42:20;2.50;99.90
16160;DHT22;8185;57.818;15.224;2023-02-14T10:44:56;2.10;99.90
16160;DHT22;8185;57.818;15.224;2023-02-14T10:47:40;2.00;99.90
16160;DHT22;8185;57.818;15.224;2023-02-14T10:50:18;1.80;99.90
16160;DHT22;8185;57.818;15.224;2023-02-14T10:52:51;1.80;99.90
16160;DHT22;8185;57.818;15.224;2023-02-14T10:55:30;1.80;99.90
16160;DHT22;8185;57.818;15.224;2023-02-14T10:57:58;1.70;99.90
16160;DHT22;8185;57.818;15.224;2023-02-14T11:00:29;1.60;99.90
16160;DHT22;8185;57.818;15.224;2023-02-14T11:02:59;1.70;99.90
16160;DHT22;8185;57.818;15.224;2023-02-14T11:05:34;1.90;99.90
16160;DHT22;8185;57.818;15.224;2023-02-14T11:08:12;1.90;99.90
16160;DHT22;8185;57.818;15.224;2023-02-14T11:10:40;1.90;99.90
16160;DHT22;8185;57.818;15.224;2023-02-14T11:13:25;1.80;99.90
16160;DHT22;8185;57.818;15.224;2023-02-14T11:15:53;1.90;99.90
16160;DHT22;8185;57.818;15.224;2023-02-14T11:18:25;1.80;99.90
16160;DHT22;8185;57.818;15.224;2023-02-14T11:21:04;1.80;99.90
16160;DHT22;8185;57.818;15.224;2023-02-14T11:23:34;1.80;99.90
16160;DHT22;8185;57.818;15.224;2023-02-14T11:26:03;1.80;99.90
16160;DHT22;8185;57.818;15.224;2023-02-14T11:28:31;2.00;99.90
16160;DHT22;8185;57.818;15.224;2023-02-14T11:31:00;2.00;99.90
16160;DHT22;8185;57.818;15.224;2023-02-14T11:33:36;1.90;99.90
16160;DHT22;8185;57.818;15.224;2023-02-14T11:36:10;2.00;99.90
16160;DHT22;8185;57.818;15.224;2023-02-14T11:38:39;2.10;99.90
16160;DHT22;8185;57.818;15.224;2023-02-14T11:41:08;2.00;99.90
16160;DHT22;8185;57.818;15.224;2023-02-14T11:43:37;1.90;99.90
16160;DHT22;8185;57.818;15.224;2023-02-14T11:46:13;2.00;99.90
16160;DHT22;8185;57.818;15.224;2023-02-14T11:48:56;2.00;99.90
16160;DHT22;8185;57.818;15.224;2023-02-14T11:51:33;1.90;99.90
16160;DHT22;8185;57.818;15.224;2023-02-14T11:54:02;1.90;99.90
16160;DHT22;8185;57.818;15.224;2023-02-14T11:56:48;2.00;99.90
16160;DHT22;8185;57.818;15.224;2023-02-14T11:59:27;2.00;99.90
16160;DHT22;8185;57.818;15.224;2023-02-14T12:01:56;1.90;99.90
16160;DHT22;8185;57.818;15.224;2023-02-14T12:04:31;2.00;99.90
16160;DHT22;8185;57.818;15.224;2023-02-14T12:07:18;2.00;99.90
16160;DHT22;8185;57.818;15.224;2023-02-14T12:09:47;1.90;99.90
16160;DHT22;8185;57.818;15.224;2023-02-14T12:12:31;2.00;99.90
16160;DHT22;8185;57.818;15.224;2023-02-14T12:15:20;1.90;99.90
16160;DHT22;8185;57.818;15.224;2023-02-14T12:17:52;1.90;99.90
16160;DHT22;8185;57.818;15.224;2023-02-14T12:20:29;1.80;99.90
16160;DHT22;8185;57.818;15.224;2023-02-14T12:23:06;1.80;99.90
16160;DHT22;8185;57.818;15.224;2023-02-14T12:25:43;1.80;99.90
16160;DHT22;8185;57.818;15.224;2023-02-14T12:28:17;1.80;99.90
16160;DHT22;8185;57.818;15.224;2023-02-14T12:30:45;1.70;99.90
16160;DHT22;8185;57.818;15.224;2023-02-14T12:33:17;1.80;99.90
16160;DHT22;8185;57.818;15.224;2023-02-14T12:35:52;1.90;99.90
16160;DHT22;8185;57.818;15.224;2023-02-14T12:38:33;1.90;99.90
16160;DHT22;8185;57.818;15.224;2023-02-14T12:41:17;1.90;99.90
16160;DHT22;8185;57.818;15.224;2023-02-14T12:43:52;1.90;99.90
16160;DHT22;8185;57.818;15.224;2023-02-14T12:46:32;1.90;99.90
16160;DHT22;8185;57.818;15.224;2023-02-14T12:49:22;1.80;99.90
16160;DHT22;8185;57.818;15.224;2023-02-14T12:52:01;1.80;99.90
16160;DHT22;8185;57.818;15.224;2023-02-14T12:54:50;1.80;99.90
16160;DHT22;8185;57.818;15.224;2023-02-14T12:57:30;1.80;99.90
16160;DHT22;8185;57.818;15.224;2023-02-14T13:00:17;1.80;99.90
16160;DHT22;8185;57.818;15.224;2023-02-14T13:03:09;1.80;99.90
16160;DHT22;8185;57.818;15.224;2023-02-14T13:05:48;1.80;99.90
16160;DHT22;8185;57.818;15.224;2023-02-14T13:08:26;1.80;99.90
16160;DHT22;8185;57.818;15.224;2023-02-14T13:11:07;1.80;99.90
16160;DHT22;8185;57.818;15.224;2023-02-14T13:13:47;1.70;99.90
16160;DHT22;8185;57.818;15.224;2023-02-14T13:16:21;1.70;99.90
16160;DHT22;8185;57.818;15.224;2023-02-14T13:18:53;1.70;99.90
16160;DHT22;8185;57.818;15.224;2023-02-14T13:21:25;1.70;99.90
16160;DHT22;8185;57.818;15.224;2023-02-14T13:23:59;1.70;99.90
16160;DHT22;8185;57.818;15.224;2023-02-14T13:26:32;1.70;99.90
16160;DHT22;8185;57.818;15.224;2023-02-14T13:29:03;1.70;99.90
16160;DHT22;8185;57.818;15.224;2023-02-14T13:31:32;1.80;99.90
16160;DHT22;8185;57.818;15.224;2023-02-14T13:34:02;1.90;99.90
16160;DHT22;8185;57.818;15.224;2023-02-14T13:36:32;1.90;99.90
16160;DHT22;8185;57.818;15.224;2023-02-14T13:39:00;1.90;99.90
16160;DHT22;8185;57.818;15.224;2023-02-14T13:41:30;1.90;99.90
16160;DHT22;8185;57.818;15.224;2023-02-14T13:43:59;1.80;99.90
16160;DHT22;8185;57.818;15.224;2023-02-14T13:46:48;1.90;99.90
16160;DHT22;8185;57.818;15.224;2023-02-14T13:49:28;1.90;99.90
16160;DHT22;8185;57.818;15.224;2023-02-14T13:51:58;1.90;99.90
16160;DHT22;8185;57.818;15.224;2023-02-14T13:54:43;2.00;99.90
16160;DHT22;8185;57.818;15.224;2023-02-14T13:57:29;2.00;99.90
16160;DHT22;8185;57.818;15.224;2023-02-14T14:00:22;2.00;99.90
16160;DHT22;8185;57.818;15.224;2023-02-14T14:03:01;2.10;99.90
16160;DHT22;8185;57.818;15.224;2023-02-14T14:05:57;2.00;99.90
16160;DHT22;8185;57.818;15.224;2023-02-14T14:08:43;2.00;99.90
16160;DHT22;8185;57.818;15.224;2023-02-14T14:11:47;2.00;99.90
16160;DHT22;8185;57.818;15.224;2023-02-14T14:14:03;2.10;99.90
16160;DHT22;8185;57.818;15.224;2023-02-14T14:16:56;2.10;99.90
16160;DHT22;8185;57.818;15.224;2023-02-14T14:19:37;2.10;99.90
16160;DHT22;8185;57.818;15.224;2023-02-14T14:22:08;2.20;99.90
16160;DHT22;8185;57.818;15.224;2023-02-14T14:24:36;2.20;99.90
16160;DHT22;8185;57.818;15.224;2023-02-14T14:27:11;2.20;99.90
16160;DHT22;8185;57.818;15.224;2023-02-14T14:29:46;2.20;99.90
16160;DHT22;8185;57.818;15.224;2023-02-14T14:32:19;2.20;99.90
16160;DHT22;8185;57.818;15.224;2023-02-14T14:34:55;2.30;99.90
16160;DHT22;8185;57.818;15.224;2023-02-14T14:37:26;2.30;99.90
16160;DHT22;8185;57.818;15.224;2023-02-14T14:39:55;2.40;99.90
16160;DHT22;8185;57.818;15.224;2023-02-14T14:42:24;2.40;99.90
16160;DHT22;8185;57.818;15.224;2023-02-14T14:44:56;2.40;99.90
16160;DHT22;8185;57.818;15.224;2023-02-14T14:47:27;2.30;99.90
16160;DHT22;8185;57.818;15.224;2023-02-14T14:50:02;2.40;99.90
16160;DHT22;8185;57.818;15.224;2023-02-14T14:52:34;2.40;99.90
16160;DHT22;8185;57.818;15.224;2023-02-14T14:55:04;2.40;99.90
16160;DHT22;8185;57.818;15.224;2023-02-14T14:57:34;2.50;99.90
16160;DHT22;8185;57.818;15.224;2023-02-14T15:00:20;2.50;99.90
16160;DHT22;8185;57.818;15.224;2023-02-14T15:03:03;2.50;99.90
16160;DHT22;8185;57.818;15.224;2023-02-14T15:05:33;2.50;99.90
16160;DHT22;8185;57.818;15.224;2023-02-14T15:08:15;2.50;99.90
16160;DHT22;8185;57.818;15.224;2023-02-14T15:10:45;2.50;99.90
16160;DHT22;8185;57.818;15.224;2023-02-14T15:13:14;2.40;99.90
16160;DHT22;8185;57.818;15.224;2023-02-14T15:16:00;2.50;99.90
16160;DHT22;8185;57.818;15.224;2023-02-14T15:18:27;2.50;99.90
16160;DHT22;8185;57.818;15.224;2023-02-14T15:20:55;2.50;99.90
16160;DHT22;8185;57.818;15.224;2023-02-14T15:23:23;2.50;99.90
16160;DHT22;8185;57.818;15.224;2023-02-14T15:25:51;2.50;99.90
16160;DHT22;8185;57.818;15.224;2023-02-14T15:28:28;2.50;99.90
16160;DHT22;8185;57.818;15.224;2023-02-14T15:30:58;2.50;99.90
16160;DHT22;8185;57.818;15.224;2023-02-14T15:33:28;2.50;99.90
16160;DHT22;8185;57.818;15.224;2023-02-14T15:36:00;2.50;99.90
16160;DHT22;8185;57.818;15.224;2023-02-14T15:38:29;2.60;99.90
16160;DHT22;8185;57.818;15.224;2023-02-14T15:40:59;2.60;99.90
16160;DHT22;8185;57.818;15.224;2023-02-14T15:43:29;2.60;99.90
16160;DHT22;8185;57.818;15.224;2023-02-14T15:45:59;2.60;99.90
16160;DHT22;8185;57.818;15.224;2023-02-14T15:48:40;2.60;99.90
16160;DHT22;8185;57.818;15.224;2023-02-14T15:51:15;2.60;99.90
16160;DHT22;8185;57.818;15.224;2023-02-14T15:53:44;2.60;99.90
16160;DHT22;8185;57.818;15.224;2023-02-14T15:56:20;2.60;99.90
16160;DHT22;8185;57.818;15.224;2023-02-14T15:58:58;2.60;99.90
16160;DHT22;8185;57.818;15.224;2023-02-14T16:01:26;2.60;99.90
16160;DHT22;8185;57.818;15.224;2023-02-14T16:03:58;2.60;99.90
16160;DHT22;8185;57.818;15.224;2023-02-14T16:06:33;2.60;99.90
16160;DHT22;8185;57.818;15.224;2023-02-14T16:09:04;2.60;99.90
16160;DHT22;8185;57.818;15.224;2023-02-14T16:11:33;2.60;99.90
16160;DHT22;8185;57.818;15.224;2023-02-14T16:14:30;2.60;99.90
16160;DHT22;8185;57.818;15.224;2023-02-14T16:17:01;2.50;99.90
16160;DHT22;8185;57.818;15.224;2023-02-14T16:19:38;2.60;99.90